sensor_id;sensor_type;location;lat;lon;timestamp;pressure;altitude;pressure_sealevel;temperature
72278;BMP280;61204;49.980;8.358;2022-11-06T00:02:12;101054.06;;;5.48
72278;BMP280;61204;49.980;8.358;2022-11-06T00:04:38;101057.44;;;5.41
72278;BMP280;61204;49.980;8.358;2022-11-06T00:07:03;101043.41;;;5.37
72278;BMP280;61204;49.980;8.358;2022-11-06T00:09:29;101035.38;;;5.32
72278;BMP280;61204;49.980;8.358;2022-11-06T00:11:55;101042.94;;;5.25
72278;BMP280;61204;49.980;8.358;2022-11-06T00:14:21;101043.78;;;5.20
72278;BMP280;61204;49.980;8.358;2022-11-06T00:16:47;101034.47;;;5.16
72278;BMP280;61204;49.980;8.358;2022-11-06T00:19:13;101034.25;;;5.14
72278;BMP280;61204;49.980;8.358;2022-11-06T00:21:40;101022.25;;;5.09
72278;BMP280;61204;49.980;8.358;2022-11-06T00:24:09;101021.13;;;5.05
72278;BMP280;61204;49.980;8.358;2022-11-06T00:26:37;101017.44;;;5.02
72278;BMP280;61204;49.980;8.358;2022-11-06T00:29:05;101019.97;;;5.00
72278;BMP280;61204;49.980;8.358;2022-11-06T00:31:35;101017.75;;;4.98
72278;BMP280;61204;49.980;8.358;2022-11-06T00:34:02;101009.59;;;4.98
72278;BMP280;61204;49.980;8.358;2022-11-06T00:36:31;101010.88;;;4.97
72278;BMP280;61204;49.980;8.358;2022-11-06T00:38:58;100992.19;;;4.94
72278;BMP280;61204;49.980;8.358;2022-11-06T00:41:25;100994.06;;;4.86
72278;BMP280;61204;49.980;8.358;2022-11-06T00:43:59;100986.94;;;4.83
72278;BMP280;61204;49.980;8.358;2022-11-06T00:46:27;100980.38;;;4.78
72278;BMP280;61204;49.980;8.358;2022-11-06T00:48:53;100976.72;;;4.75
72278;BMP280;61204;49.980;8.358;2022-11-06T00:51:26;100985.91;;;4.72
72278;BMP280;61204;49.980;8.358;2022-11-06T00:53:57;100978.38;;;4.65
72278;BMP280;61204;49.980;8.358;2022-11-06T00:56:25;100984.13;;;4.62
72278;BMP280;61204;49.980;8.358;2022-11-06T00:58:53;100990.63;;;4.59
72278;BMP280;61204;49.980;8.358;2022-11-06T01:01:24;100981.78;;;4.58
72278;BMP280;61204;49.980;8.358;2022-11-06T01:03:56;100980.69;;;4.61
72278;BMP280;61204;49.980;8.358;2022-11-06T01:06:35;100975.59;;;4.58
72278;BMP280;61204;49.980;8.358;2022-11-06T01:09:05;100974.22;;;4.64
72278;BMP280;61204;49.980;8.358;2022-11-06T01:11:35;100978.19;;;4.63
72278;BMP280;61204;49.980;8.358;2022-11-06T01:14:05;100991.53;;;4.61
72278;BMP280;61204;49.980;8.358;2022-11-06T01:16:33;100992.81;;;4.60
72278;BMP280;61204;49.980;8.358;2022-11-06T01:18:59;100993.13;;;4.57
72278;BMP280;61204;49.980;8.358;2022-11-06T01:21:29;100995.44;;;4.53
72278;BMP280;61204;49.980;8.358;2022-11-06T01:24:01;100995.97;;;4.51
72278;BMP280;61204;49.980;8.358;2022-11-06T01:26:32;101000.44;;;4.48
72278;BMP280;61204;49.980;8.358;2022-11-06T01:28:59;101001.28;;;4.43
72278;BMP280;61204;49.980;8.358;2022-11-06T01:31:27;100998.31;;;4.41
72278;BMP280;61204;49.980;8.358;2022-11-06T01:33:58;101001.16;;;4.36
72278;BMP280;61204;49.980;8.358;2022-11-06T01:36:26;100995.00;;;4.35
72278;BMP280;61204;49.980;8.358;2022-11-06T01:38:55;100997.19;;;4.37
72278;BMP280;61204;49.980;8.358;2022-11-06T01:41:30;100997.06;;;4.29
72278;BMP280;61204;49.980;8.358;2022-11-06T01:47:24;100995.63;;;4.28
72278;BMP280;61204;49.980;8.358;2022-11-06T01:49:54;100996.47;;;4.36
72278;BMP280;61204;49.980;8.358;2022-11-06T01:52:26;100982.25;;;4.30
72278;BMP280;61204;49.980;8.358;2022-11-06T01:55:05;100979.09;;;4.26
72278;BMP280;61204;49.980;8.358;2022-11-06T01:57:49;100977.41;;;4.23
72278;BMP280;61204;49.980;8.358;2022-11-06T02:00:16;100974.59;;;4.15
72278;BMP280;61204;49.980;8.358;2022-11-06T02:02:44;100976.47;;;4.07
72278;BMP280;61204;49.980;8.358;2022-11-06T02:05:10;100969.88;;;4.03
72278;BMP280;61204;49.980;8.358;2022-11-06T02:07:36;100959.75;;;4.03
72278;BMP280;61204;49.980;8.358;2022-11-06T02:10:05;100963.13;;;4.09
72278;BMP280;61204;49.980;8.358;2022-11-06T02:12:46;100962.28;;;4.14
72278;BMP280;61204;49.980;8.358;2022-11-06T02:18:59;100955.34;;;4.00
72278;BMP280;61204;49.980;8.358;2022-11-06T02:25:02;100945.94;;;3.88
72278;BMP280;61204;49.980;8.358;2022-11-06T02:27:43;100948.38;;;4.05
72278;BMP280;61204;49.980;8.358;2022-11-06T02:30:16;100949.56;;;4.09
72278;BMP280;61204;49.980;8.358;2022-11-06T02:33:01;100938.69;;;4.09
72278;BMP280;61204;49.980;8.358;2022-11-06T02:35:39;100936.72;;;4.10
72278;BMP280;61204;49.980;8.358;2022-11-06T02:38:28;100937.63;;;3.99
72278;BMP280;61204;49.980;8.358;2022-11-06T02:41:09;100950.25;;;3.96
72278;BMP280;61204;49.980;8.358;2022-11-06T02:43:45;100935.44;;;4.11
72278;BMP280;61204;49.980;8.358;2022-11-06T02:46:29;100940.44;;;4.07
72278;BMP280;61204;49.980;8.358;2022-11-06T02:49:07;100948.91;;;4.03
72278;BMP280;61204;49.980;8.358;2022-11-06T02:51:47;100944.28;;;3.98
72278;BMP280;61204;49.980;8.358;2022-11-06T02:54:22;100950.53;;;3.93
72278;BMP280;61204;49.980;8.358;2022-11-06T02:56:56;100949.47;;;3.83
72278;BMP280;61204;49.980;8.358;2022-11-06T02:59:42;100949.66;;;3.71
72278;BMP280;61204;49.980;8.358;2022-11-06T03:02:23;100938.38;;;3.67
72278;BMP280;61204;49.980;8.358;2022-11-06T03:05:05;100949.00;;;3.65
72278;BMP280;61204;49.980;8.358;2022-11-06T03:07:46;100945.03;;;3.66
72278;BMP280;61204;49.980;8.358;2022-11-06T03:10:25;100944.75;;;3.70
72278;BMP280;61204;49.980;8.358;2022-11-06T03:13:09;100954.53;;;3.60
72278;BMP280;61204;49.980;8.358;2022-11-06T03:16:05;100943.31;;;3.50
72278;BMP280;61204;49.980;8.358;2022-11-06T03:18:58;100923.16;;;3.78
72278;BMP280;61204;49.980;8.358;2022-11-06T03:21:56;100916.09;;;3.88
72278;BMP280;61204;49.980;8.358;2022-11-06T03:24:45;100922.25;;;3.88
72278;BMP280;61204;49.980;8.358;2022-11-06T03:27:48;100923.00;;;3.89
72278;BMP280;61204;49.980;8.358;2022-11-06T03:30:27;100929.00;;;3.82
72278;BMP280;61204;49.980;8.358;2022-11-06T03:33:04;100928.28;;;3.68
72278;BMP280;61204;49.980;8.358;2022-11-06T03:38:36;100935.84;;;3.56
72278;BMP280;61204;49.980;8.358;2022-11-06T03:41:18;100928.34;;;3.62
72278;BMP280;61204;49.980;8.358;2022-11-06T03:43:53;100920.44;;;3.64
72278;BMP280;61204;49.980;8.358;2022-11-06T03:46:25;100921.03;;;3.57
72278;BMP280;61204;49.980;8.358;2022-11-06T03:48:57;100912.94;;;3.52
72278;BMP280;61204;49.980;8.358;2022-11-06T03:51:35;100914.38;;;3.39
72278;BMP280;61204;49.980;8.358;2022-11-06T03:54:25;100905.44;;;3.44
72278;BMP280;61204;49.980;8.358;2022-11-06T03:57:04;100903.19;;;3.48
72278;BMP280;61204;49.980;8.358;2022-11-06T03:59:42;100901.13;;;3.36
72278;BMP280;61204;49.980;8.358;2022-11-06T04:02:14;100892.97;;;3.22
72278;BMP280;61204;49.980;8.358;2022-11-06T04:04:47;100884.97;;;3.11
72278;BMP280;61204;49.980;8.358;2022-11-06T04:07:25;100895.13;;;3.05
72278;BMP280;61204;49.980;8.358;2022-11-06T04:10:03;100880.47;;;3.33
72278;BMP280;61204;49.980;8.358;2022-11-06T04:12:55;100892.63;;;3.45
72278;BMP280;61204;49.980;8.358;2022-11-06T04:15:50;100898.66;;;3.51
72278;BMP280;61204;49.980;8.358;2022-11-06T04:18:18;100896.81;;;3.59
72278;BMP280;61204;49.980;8.358;2022-11-06T04:20:58;100890.81;;;3.66
72278;BMP280;61204;49.980;8.358;2022-11-06T04:30:16;100909.34;;;3.49
72278;BMP280;61204;49.980;8.358;2022-11-06T04:33:06;100911.81;;;3.28
72278;BMP280;61204;49.980;8.358;2022-11-06T04:41:59;100911.56;;;2.94
72278;BMP280;61204;49.980;8.358;2022-11-06T04:44:47;100919.25;;;2.90
72278;BMP280;61204;49.980;8.358;2022-11-06T04:47:20;100917.03;;;2.88
72278;BMP280;61204;49.980;8.358;2022-11-06T04:49:50;100900.22;;;2.95
72278;BMP280;61204;49.980;8.358;2022-11-06T04:52:24;100901.38;;;3.00
72278;BMP280;61204;49.980;8.358;2022-11-06T04:54:56;100909.84;;;2.91
72278;BMP280;61204;49.980;8.358;2022-11-06T04:57:24;100922.47;;;2.88
72278;BMP280;61204;49.980;8.358;2022-11-06T04:59:50;100914.78;;;2.92
72278;BMP280;61204;49.980;8.358;2022-11-06T05:02:17;100912.41;;;3.02
72278;BMP280;61204;49.980;8.358;2022-11-06T05:04:43;100913.81;;;3.09
72278;BMP280;61204;49.980;8.358;2022-11-06T05:07:12;100914.78;;;3.11
72278;BMP280;61204;49.980;8.358;2022-11-06T05:09:39;100909.84;;;3.29
72278;BMP280;61204;49.980;8.358;2022-11-06T05:12:06;100911.41;;;3.24
72278;BMP280;61204;49.980;8.358;2022-11-06T05:14:31;100919.34;;;3.22
72278;BMP280;61204;49.980;8.358;2022-11-06T05:16:57;100917.25;;;3.09
72278;BMP280;61204;49.980;8.358;2022-11-06T05:19:24;100901.38;;;3.00
72278;BMP280;61204;49.980;8.358;2022-11-06T05:21:49;100903.44;;;2.94
72278;BMP280;61204;49.980;8.358;2022-11-06T05:24:33;100903.78;;;2.85
72278;BMP280;61204;49.980;8.358;2022-11-06T05:27:00;100893.00;;;2.79
72278;BMP280;61204;49.980;8.358;2022-11-06T05:29:25;100891.31;;;2.76
72278;BMP280;61204;49.980;8.358;2022-11-06T05:31:51;100891.09;;;2.74
72278;BMP280;61204;49.980;8.358;2022-11-06T05:34:17;100890.38;;;2.73
72278;BMP280;61204;49.980;8.358;2022-11-06T05:36:42;100886.28;;;2.86
72278;BMP280;61204;49.980;8.358;2022-11-06T05:39:09;100890.47;;;2.87
72278;BMP280;61204;49.980;8.358;2022-11-06T05:41:35;100889.22;;;2.88
72278;BMP280;61204;49.980;8.358;2022-11-06T05:44:01;100889.88;;;2.94
72278;BMP280;61204;49.980;8.358;2022-11-06T05:46:26;100899.88;;;2.99
72278;BMP280;61204;49.980;8.358;2022-11-06T05:48:52;100895.88;;;3.06
72278;BMP280;61204;49.980;8.358;2022-11-06T05:51:17;100884.75;;;3.09
72278;BMP280;61204;49.980;8.358;2022-11-06T05:53:44;100871.28;;;3.22
72278;BMP280;61204;49.980;8.358;2022-11-06T05:56:09;100865.03;;;3.28
72278;BMP280;61204;49.980;8.358;2022-11-06T05:58:35;100866.69;;;3.31
72278;BMP280;61204;49.980;8.358;2022-11-06T06:01:01;100852.56;;;3.38
72278;BMP280;61204;49.980;8.358;2022-11-06T06:03:26;100843.84;;;3.45
72278;BMP280;61204;49.980;8.358;2022-11-06T06:05:52;100845.72;;;3.50
72278;BMP280;61204;49.980;8.358;2022-11-06T06:08:17;100845.91;;;3.52
72278;BMP280;61204;49.980;8.358;2022-11-06T06:10:44;100842.88;;;3.56
72278;BMP280;61204;49.980;8.358;2022-11-06T06:13:12;100855.13;;;3.62
72278;BMP280;61204;49.980;8.358;2022-11-06T06:15:40;100855.56;;;3.66
72278;BMP280;61204;49.980;8.358;2022-11-06T06:18:08;100848.38;;;3.69
72278;BMP280;61204;49.980;8.358;2022-11-06T06:20:35;100848.78;;;3.73
72278;BMP280;61204;49.980;8.358;2022-11-06T06:23:01;100834.72;;;3.74
72278;BMP280;61204;49.980;8.358;2022-11-06T06:25:28;100834.59;;;3.80
72278;BMP280;61204;49.980;8.358;2022-11-06T06:27:54;100819.28;;;3.83
72278;BMP280;61204;49.980;8.358;2022-11-06T06:30:22;100819.91;;;3.89
72278;BMP280;61204;49.980;8.358;2022-11-06T06:32:50;100818.56;;;3.95
72278;BMP280;61204;49.980;8.358;2022-11-06T06:35:16;100809.56;;;4.00
72278;BMP280;61204;49.980;8.358;2022-11-06T06:37:49;100800.81;;;4.08
72278;BMP280;61204;49.980;8.358;2022-11-06T06:40:17;100796.53;;;4.12
72278;BMP280;61204;49.980;8.358;2022-11-06T06:42:43;100791.69;;;4.18
72278;BMP280;61204;49.980;8.358;2022-11-06T06:45:08;100797.66;;;4.30
72278;BMP280;61204;49.980;8.358;2022-11-06T06:47:34;100793.91;;;4.33
72278;BMP280;61204;49.980;8.358;2022-11-06T06:49:59;100806.63;;;4.38
72278;BMP280;61204;49.980;8.358;2022-11-06T06:52:25;100801.56;;;4.42
72278;BMP280;61204;49.980;8.358;2022-11-06T06:54:51;100807.94;;;4.45
72278;BMP280;61204;49.980;8.358;2022-11-06T06:57:16;100805.13;;;4.50
72278;BMP280;61204;49.980;8.358;2022-11-06T06:59:42;100807.72;;;4.56
72278;BMP280;61204;49.980;8.358;2022-11-06T07:02:08;100807.72;;;4.56
72278;BMP280;61204;49.980;8.358;2022-11-06T07:04:33;100806.66;;;4.59
72278;BMP280;61204;49.980;8.358;2022-11-06T07:06:59;100805.09;;;4.64
72278;BMP280;61204;49.980;8.358;2022-11-06T07:09:29;100810.19;;;4.67
72278;BMP280;61204;49.980;8.358;2022-11-06T07:11:56;100815.81;;;4.69
72278;BMP280;61204;49.980;8.358;2022-11-06T07:14:22;100807.47;;;4.67
72278;BMP280;61204;49.980;8.358;2022-11-06T07:16:48;100808.75;;;4.66
72278;BMP280;61204;49.980;8.358;2022-11-06T07:19:14;100807.69;;;4.69
72278;BMP280;61204;49.980;8.358;2022-11-06T07:21:39;100805.25;;;4.79
72278;BMP280;61204;49.980;8.358;2022-11-06T07:24:05;100793.25;;;4.74
72278;BMP280;61204;49.980;8.358;2022-11-06T07:26:31;100790.75;;;4.76
72278;BMP280;61204;49.980;8.358;2022-11-06T07:28:56;100793.50;;;4.84
72278;BMP280;61204;49.980;8.358;2022-11-06T07:31:22;100792.69;;;4.89
72278;BMP280;61204;49.980;8.358;2022-11-06T07:33:47;100792.41;;;5.00
72278;BMP280;61204;49.980;8.358;2022-11-06T07:36:13;100797.00;;;5.06
72278;BMP280;61204;49.980;8.358;2022-11-06T07:38:40;100788.72;;;5.11
72278;BMP280;61204;49.980;8.358;2022-11-06T07:41:10;100788.34;;;5.15
72278;BMP280;61204;49.980;8.358;2022-11-06T07:43:39;100783.34;;;5.19
72278;BMP280;61204;49.980;8.358;2022-11-06T07:46:08;100787.22;;;5.31
72278;BMP280;61204;49.980;8.358;2022-11-06T07:48:37;100790.41;;;5.43
72278;BMP280;61204;49.980;8.358;2022-11-06T07:51:05;100789.91;;;5.52
72278;BMP280;61204;49.980;8.358;2022-11-06T07:53:33;100793.78;;;5.64
72278;BMP280;61204;49.980;8.358;2022-11-06T07:55:59;100804.03;;;5.79
72278;BMP280;61204;49.980;8.358;2022-11-06T07:58:26;100803.50;;;5.80
72278;BMP280;61204;49.980;8.358;2022-11-06T08:00:54;100820.81;;;5.91
72278;BMP280;61204;49.980;8.358;2022-11-06T08:03:23;100810.28;;;5.87
72278;BMP280;61204;49.980;8.358;2022-11-06T08:05:50;100804.66;;;5.93
72278;BMP280;61204;49.980;8.358;2022-11-06T08:08:16;100802.19;;;6.10
72278;BMP280;61204;49.980;8.358;2022-11-06T08:10:42;100808.09;;;6.29
72278;BMP280;61204;49.980;8.358;2022-11-06T08:13:09;100807.75;;;6.33
72278;BMP280;61204;49.980;8.358;2022-11-06T08:15:37;100810.81;;;6.29
72278;BMP280;61204;49.980;8.358;2022-11-06T08:18:08;100808.78;;;6.22
72278;BMP280;61204;49.980;8.358;2022-11-06T08:20:36;100816.44;;;6.31
72278;BMP280;61204;49.980;8.358;2022-11-06T08:23:05;100817.72;;;6.30
72278;BMP280;61204;49.980;8.358;2022-11-06T08:25:33;100815.72;;;6.31
72278;BMP280;61204;49.980;8.358;2022-11-06T08:28:00;100808.94;;;6.24
72278;BMP280;61204;49.980;8.358;2022-11-06T08:30:28;100806.09;;;6.38
72278;BMP280;61204;49.980;8.358;2022-11-06T08:33:02;100807.22;;;6.50
72278;BMP280;61204;49.980;8.358;2022-11-06T08:35:33;100798.91;;;6.48
72278;BMP280;61204;49.980;8.358;2022-11-06T08:37:59;100799.41;;;6.46
72278;BMP280;61204;49.980;8.358;2022-11-06T08:40:25;100797.03;;;6.43
72278;BMP280;61204;49.980;8.358;2022-11-06T08:43:01;100795.44;;;6.47
72278;BMP280;61204;49.980;8.358;2022-11-06T08:45:30;100786.53;;;6.62
72278;BMP280;61204;49.980;8.358;2022-11-06T08:48:01;100788.03;;;6.71
72278;BMP280;61204;49.980;8.358;2022-11-06T08:50:29;100791.28;;;6.69
72278;BMP280;61204;49.980;8.358;2022-11-06T08:52:57;100788.56;;;6.92
72278;BMP280;61204;49.980;8.358;2022-11-06T08:55:32;100780.75;;;6.89
72278;BMP280;61204;49.980;8.358;2022-11-06T08:58:00;100774.25;;;6.99
72278;BMP280;61204;49.980;8.358;2022-11-06T09:00:27;100771.13;;;7.03
72278;BMP280;61204;49.980;8.358;2022-11-06T09:02:58;100767.69;;;7.10
72278;BMP280;61204;49.980;8.358;2022-11-06T09:05:26;100771.09;;;7.26
72278;BMP280;61204;49.980;8.358;2022-11-06T09:07:55;100772.56;;;7.42
72278;BMP280;61204;49.980;8.358;2022-11-06T09:10:25;100761.13;;;7.21
72278;BMP280;61204;49.980;8.358;2022-11-06T09:12:52;100764.88;;;7.56
72278;BMP280;61204;49.980;8.358;2022-11-06T09:15:18;100769.16;;;8.22
72278;BMP280;61204;49.980;8.358;2022-11-06T09:17:45;100759.63;;;8.63
72278;BMP280;61204;49.980;8.358;2022-11-06T09:20:14;100749.44;;;8.98
72278;BMP280;61204;49.980;8.358;2022-11-06T09:22:43;100746.97;;;9.45
72278;BMP280;61204;49.980;8.358;2022-11-06T09:25:10;100740.09;;;9.98
72278;BMP280;61204;49.980;8.358;2022-11-06T09:27:49;100740.25;;;10.83
72278;BMP280;61204;49.980;8.358;2022-11-06T09:30:19;100731.13;;;10.61
72278;BMP280;61204;49.980;8.358;2022-11-06T09:32:51;100727.53;;;11.07
72278;BMP280;61204;49.980;8.358;2022-11-06T09:35:24;100726.69;;;11.43
72278;BMP280;61204;49.980;8.358;2022-11-06T09:37:51;100714.66;;;11.48
72278;BMP280;61204;49.980;8.358;2022-11-06T09:43:19;100695.63;;;12.22
72278;BMP280;61204;49.980;8.358;2022-11-06T09:45:52;100701.75;;;12.32
72278;BMP280;61204;49.980;8.358;2022-11-06T09:48:23;100698.50;;;11.93
72278;BMP280;61204;49.980;8.358;2022-11-06T09:51:00;100702.41;;;12.21
72278;BMP280;61204;49.980;8.358;2022-11-06T09:53:47;100703.44;;;13.01
72278;BMP280;61204;49.980;8.358;2022-11-06T09:56:29;100697.72;;;13.09
72278;BMP280;61204;49.980;8.358;2022-11-06T09:59:00;100706.84;;;13.35
72278;BMP280;61204;49.980;8.358;2022-11-06T10:01:39;100692.53;;;13.48
72278;BMP280;61204;49.980;8.358;2022-11-06T10:04:19;100674.97;;;14.25
72278;BMP280;61204;49.980;8.358;2022-11-06T10:07:18;100668.09;;;13.89
72278;BMP280;61204;49.980;8.358;2022-11-06T10:09:54;100667.88;;;14.46
72278;BMP280;61204;49.980;8.358;2022-11-06T10:18:19;100663.69;;;14.33
72278;BMP280;61204;49.980;8.358;2022-11-06T10:21:14;100656.47;;;13.67
72278;BMP280;61204;49.980;8.358;2022-11-06T10:23:57;100657.34;;;14.68
72278;BMP280;61204;49.980;8.358;2022-11-06T10:26:44;100648.50;;;14.57
72278;BMP280;61204;49.980;8.358;2022-11-06T10:35:36;100650.50;;;14.32
72278;BMP280;61204;49.980;8.358;2022-11-06T10:38:28;100652.03;;;14.72
72278;BMP280;61204;49.980;8.358;2022-11-06T10:41:00;100649.44;;;14.88
72278;BMP280;61204;49.980;8.358;2022-11-06T10:43:36;100640.16;;;14.95
72278;BMP280;61204;49.980;8.358;2022-11-06T10:46:27;100629.50;;;14.89
72278;BMP280;61204;49.980;8.358;2022-11-06T10:58:37;100612.09;;;16.69
72278;BMP280;61204;49.980;8.358;2022-11-06T11:01:04;100590.91;;;16.15
72278;BMP280;61204;49.980;8.358;2022-11-06T11:03:45;100594.81;;;16.71
72278;BMP280;61204;49.980;8.358;2022-11-06T11:06:11;100595.16;;;17.26
72278;BMP280;61204;49.980;8.358;2022-11-06T11:08:40;100600.81;;;17.28
72278;BMP280;61204;49.980;8.358;2022-11-06T11:16:23;100579.66;;;18.81
72278;BMP280;61204;49.980;8.358;2022-11-06T11:18:50;100573.84;;;18.73
72278;BMP280;61204;49.980;8.358;2022-11-06T11:21:23;100571.94;;;18.40
72278;BMP280;61204;49.980;8.358;2022-11-06T11:24:12;100559.78;;;19.09
72278;BMP280;61204;49.980;8.358;2022-11-06T11:26:48;100554.25;;;19.96
72278;BMP280;61204;49.980;8.358;2022-11-06T11:29:23;100556.75;;;18.05
72278;BMP280;61204;49.980;8.358;2022-11-06T11:31:56;100545.88;;;19.28
72278;BMP280;61204;49.980;8.358;2022-11-06T11:34:35;100527.81;;;19.08
72278;BMP280;61204;49.980;8.358;2022-11-06T11:37:22;100525.78;;;17.40
72278;BMP280;61204;49.980;8.358;2022-11-06T11:39:55;100516.22;;;17.78
72278;BMP280;61204;49.980;8.358;2022-11-06T11:43:27;100511.34;;;18.14
72278;BMP280;61204;49.980;8.358;2022-11-06T11:48:53;100482.41;;;15.87
72278;BMP280;61204;49.980;8.358;2022-11-06T11:51:28;100473.38;;;15.27
72278;BMP280;61204;49.980;8.358;2022-11-06T11:56:55;100447.53;;;14.93
72278;BMP280;61204;49.980;8.358;2022-11-06T11:59:44;100449.22;;;15.71
72278;BMP280;61204;49.980;8.358;2022-11-06T12:05:07;100442.81;;;14.96
72278;BMP280;61204;49.980;8.358;2022-11-06T12:07:42;100454.16;;;15.15
72278;BMP280;61204;49.980;8.358;2022-11-06T12:10:34;100437.41;;;14.98
72278;BMP280;61204;49.980;8.358;2022-11-06T12:13:13;100421.03;;;14.88
72278;BMP280;61204;49.980;8.358;2022-11-06T12:16:09;100407.97;;;14.75
72278;BMP280;61204;49.980;8.358;2022-11-06T12:18:47;100408.59;;;14.87
72278;BMP280;61204;49.980;8.358;2022-11-06T12:21:24;100405.06;;;14.59
72278;BMP280;61204;49.980;8.358;2022-11-06T12:24:02;100401.72;;;14.74
72278;BMP280;61204;49.980;8.358;2022-11-06T12:26:53;100400.44;;;14.22
72278;BMP280;61204;49.980;8.358;2022-11-06T12:29:46;100396.19;;;14.47
72278;BMP280;61204;49.980;8.358;2022-11-06T12:35:36;100396.78;;;14.59
72278;BMP280;61204;49.980;8.358;2022-11-06T12:41:15;100378.03;;;15.26
72278;BMP280;61204;49.980;8.358;2022-11-06T12:43:50;100374.63;;;14.98
72278;BMP280;61204;49.980;8.358;2022-11-06T12:46:43;100351.63;;;14.25
72278;BMP280;61204;49.980;8.358;2022-11-06T12:49:50;100344.06;;;14.25
72278;BMP280;61204;49.980;8.358;2022-11-06T12:59:11;100336.03;;;13.51
72278;BMP280;61204;49.980;8.358;2022-11-06T13:02:39;100333.13;;;13.49
72278;BMP280;61204;49.980;8.358;2022-11-06T13:05:56;100327.88;;;13.53
72278;BMP280;61204;49.980;8.358;2022-11-06T13:11:51;100310.97;;;13.72
72278;BMP280;61204;49.980;8.358;2022-11-06T13:14:58;100306.31;;;13.75
72278;BMP280;61204;49.980;8.358;2022-11-06T13:17:54;100315.56;;;14.07
72278;BMP280;61204;49.980;8.358;2022-11-06T13:20:59;100317.31;;;14.42
72278;BMP280;61204;49.980;8.358;2022-11-06T13:23:41;100312.34;;;15.09
72278;BMP280;61204;49.980;8.358;2022-11-06T13:26:46;100319.03;;;14.90
72278;BMP280;61204;49.980;8.358;2022-11-06T13:29:16;100313.94;;;15.14
72278;BMP280;61204;49.980;8.358;2022-11-06T13:32:16;100307.50;;;13.97
72278;BMP280;61204;49.980;8.358;2022-11-06T13:34:50;100301.72;;;13.66
72278;BMP280;61204;49.980;8.358;2022-11-06T13:37:37;100291.75;;;13.61
72278;BMP280;61204;49.980;8.358;2022-11-06T13:40:22;100292.66;;;13.91
72278;BMP280;61204;49.980;8.358;2022-11-06T13:48:47;100308.38;;;13.88
72278;BMP280;61204;49.980;8.358;2022-11-06T13:51:52;100296.88;;;14.06
72278;BMP280;61204;49.980;8.358;2022-11-06T13:57:59;100269.22;;;13.51
72278;BMP280;61204;49.980;8.358;2022-11-06T14:01:40;100254.06;;;13.38
72278;BMP280;61204;49.980;8.358;2022-11-06T14:07:16;100250.38;;;13.33
72278;BMP280;61204;49.980;8.358;2022-11-06T14:09:45;100252.63;;;12.86
72278;BMP280;61204;49.980;8.358;2022-11-06T14:12:20;100261.91;;;12.93
72278;BMP280;61204;49.980;8.358;2022-11-06T14:14:47;100261.91;;;12.93
72278;BMP280;61204;49.980;8.358;2022-11-06T14:22:31;100272.00;;;12.76
72278;BMP280;61204;49.980;8.358;2022-11-06T14:32:55;100268.81;;;12.21
72278;BMP280;61204;49.980;8.358;2022-11-06T14:40:36;100253.19;;;12.24
72278;BMP280;61204;49.980;8.358;2022-11-06T14:43:25;100247.19;;;12.27
72278;BMP280;61204;49.980;8.358;2022-11-06T14:45:54;100261.66;;;12.16
72278;BMP280;61204;49.980;8.358;2022-11-06T14:48:52;100260.00;;;12.23
72278;BMP280;61204;49.980;8.358;2022-11-06T14:51:29;100245.16;;;12.16
72278;BMP280;61204;49.980;8.358;2022-11-06T14:54:00;100247.66;;;12.12
72278;BMP280;61204;49.980;8.358;2022-11-06T14:56:52;100257.00;;;12.19
72278;BMP280;61204;49.980;8.358;2022-11-06T14:59:26;100251.38;;;12.17
72278;BMP280;61204;49.980;8.358;2022-11-06T15:02:25;100250.72;;;11.83
72278;BMP280;61204;49.980;8.358;2022-11-06T15:05:05;100222.50;;;11.59
72278;BMP280;61204;49.980;8.358;2022-11-06T15:15:43;100223.69;;;11.11
72278;BMP280;61204;49.980;8.358;2022-11-06T15:18:18;100237.44;;;11.23
72278;BMP280;61204;49.980;8.358;2022-11-06T15:20:52;100230.94;;;11.28
72278;BMP280;61204;49.980;8.358;2022-11-06T15:23:43;100231.75;;;11.31
72278;BMP280;61204;49.980;8.358;2022-11-06T15:26:32;100223.88;;;11.25
72278;BMP280;61204;49.980;8.358;2022-11-06T15:31:46;100219.91;;;11.16
72278;BMP280;61204;49.980;8.358;2022-11-06T15:34:25;100223.34;;;11.17
72278;BMP280;61204;49.980;8.358;2022-11-06T15:37:09;100230.88;;;11.16
72278;BMP280;61204;49.980;8.358;2022-11-06T15:39:49;100215.56;;;11.13
72278;BMP280;61204;49.980;8.358;2022-11-06T15:42:19;100213.50;;;11.02
72278;BMP280;61204;49.980;8.358;2022-11-06T15:44:50;100196.16;;;10.88
72278;BMP280;61204;49.980;8.358;2022-11-06T15:47:25;100187.91;;;10.67
72278;BMP280;61204;49.980;8.358;2022-11-06T15:52:44;100211.06;;;10.64
72278;BMP280;61204;49.980;8.358;2022-11-06T15:55:30;100215.31;;;10.67
72278;BMP280;61204;49.980;8.358;2022-11-06T15:58:07;100228.47;;;10.68
72278;BMP280;61204;49.980;8.358;2022-11-06T16:00:47;100223.31;;;10.62
72278;BMP280;61204;49.980;8.358;2022-11-06T16:03:17;100216.09;;;10.57
72278;BMP280;61204;49.980;8.358;2022-11-06T16:05:49;100215.84;;;10.53
72278;BMP280;61204;49.980;8.358;2022-11-06T16:08:18;100209.13;;;10.45
72278;BMP280;61204;49.980;8.358;2022-11-06T16:10:48;100200.63;;;10.41
72278;BMP280;61204;49.980;8.358;2022-11-06T16:13:17;100197.34;;;10.32
72278;BMP280;61204;49.980;8.358;2022-11-06T16:16:00;100203.47;;;10.21
72278;BMP280;61204;49.980;8.358;2022-11-06T16:21:23;100191.88;;;10.01
72278;BMP280;61204;49.980;8.358;2022-11-06T16:24:01;100187.53;;;9.98
72278;BMP280;61204;49.980;8.358;2022-11-06T16:26:38;100196.50;;;9.99
72278;BMP280;61204;49.980;8.358;2022-11-06T16:32:05;100225.03;;;10.05
72278;BMP280;61204;49.980;8.358;2022-11-06T16:34:42;100220.25;;;10.06
72278;BMP280;61204;49.980;8.358;2022-11-06T16:39:49;100213.34;;;10.05
72278;BMP280;61204;49.980;8.358;2022-11-06T16:48:22;100216.53;;;10.01
72278;BMP280;61204;49.980;8.358;2022-11-06T16:51:10;100205.56;;;10.01
72278;BMP280;61204;49.980;8.358;2022-11-06T16:56:29;100230.22;;;10.01
72278;BMP280;61204;49.980;8.358;2022-11-06T16:59:01;100229.25;;;9.97
72278;BMP280;61204;49.980;8.358;2022-11-06T17:01:42;100235.31;;;9.95
72278;BMP280;61204;49.980;8.358;2022-11-06T17:04:22;100233.56;;;9.90
72278;BMP280;61204;49.980;8.358;2022-11-06T17:06:52;100223.06;;;9.87
72278;BMP280;61204;49.980;8.358;2022-11-06T17:11:54;100222.50;;;9.88